Time;durP1;ratioP1;P1;durP2;ratioP2;P2;SDS_P1;SDS_P2;PMS_P1;PMS_P2;Temp;Humidity;BMP_temperature;BMP_pressure;BME280_temperature;BME280_humidity;BME280_pressure;Samples;Min_cycle;Max_cycle;Signal;HPM_P1;HPM_P2
2022/07/14 00:00:16;;;;;;;1.95;1.50;;;24.70;71.50;;;;;;6188824;23;20149;-77
2022/07/14 00:02:44;;;;;;;3.30;1.65;;;24.70;71.70;;;;;;6188877;23;20369;-76
2022/07/14 00:05:10;;;;;;;2.58;1.45;;;24.60;71.70;;;;;;6188706;23;20249;-76
2022/07/14 00:07:38;;;;;;;3.67;1.70;;;24.60;71.90;;;;;;6188588;23;20173;-78
2022/07/14 00:10:04;;;;;;;2.45;1.65;;;24.60;72.60;;;;;;6189154;23;20227;-76
2022/07/14 00:12:30;;;;;;;3.45;1.50;;;24.60;72.70;;;;;;6188974;23;20159;-75
2022/07/14 00:14:58;;;;;;;2.67;1.83;;;24.50;72.70;;;;;;6188164;23;20197;-77
2022/07/14 00:17:26;;;;;;;4.47;1.67;;;24.50;72.90;;;;;;6188421;23;20153;-74
2022/07/14 00:19:51;;;;;;;2.55;1.60;;;24.50;73.80;;;;;;6188970;23;20218;-75
2022/07/14 00:22:17;;;;;;;1.95;1.55;;;24.50;74.10;;;;;;6188213;23;20393;-73
2022/07/14 00:24:45;;;;;;;5.75;1.95;;;24.50;74.40;;;;;;6188956;23;20184;-78
2022/07/14 00:27:10;;;;;;;2.47;1.60;;;24.50;74.80;;;;;;6188560;23;20161;-78
2022/07/14 00:29:36;;;;;;;2.75;1.70;;;24.40;74.60;;;;;;6189399;23;20181;-76
2022/07/14 00:32:11;;;;;;;3.00;1.50;;;24.40;74.80;;;;;;6189126;23;20152;-77
2022/07/14 00:34:36;;;;;;;2.10;1.70;;;24.40;75.70;;;;;;6188591;23;20192;-78
2022/07/14 00:37:02;;;;;;;2.20;1.50;;;24.40;74.90;;;;;;6189340;23;20164;-78
2022/07/14 00:39:54;;;;;;;1.77;1.60;;;24.30;75.00;;;;;;6188264;23;20153;-79
2022/07/14 00:42:16;;;;;;;3.15;1.80;;;24.30;75.10;;;;;;6214660;23;20192;-77
2022/07/14 00:44:43;;;;;;;2.88;1.55;;;24.20;75.60;;;;;;6187980;23;20153;-78
2022/07/14 00:47:11;;;;;;;5.05;2.00;;;24.20;75.70;;;;;;6188612;23;20178;-76
2022/07/14 00:49:42;;;;;;;2.65;1.77;;;24.10;76.70;;;;;;6188781;23;20263;-78
2022/07/14 00:52:14;;;;;;;4.57;1.80;;;24.10;76.50;;;;;;6189075;23;20216;-78
2022/07/14 00:54:40;;;;;;;3.08;1.60;;;24.10;77.40;;;;;;6188601;23;20187;-78
2022/07/14 00:57:06;;;;;;;3.97;1.92;;;24.00;76.90;;;;;;6189167;23;20181;-77
2022/07/14 00:59:34;;;;;;;4.45;1.77;;;24.00;77.20;;;;;;6189174;23;20593;-77
2022/07/14 01:01:59;;;;;;;4.05;1.90;;;23.90;77.20;;;;;;6189167;23;20234;-77
2022/07/14 01:04:27;;;;;;;3.05;1.90;;;23.90;77.40;;;;;;6188684;23;20192;-75
2022/07/14 01:06:53;;;;;;;3.05;1.70;;;23.90;78.10;;;;;;6188959;23;20185;-77
2022/07/14 01:09:19;;;;;;;2.10;1.63;;;23.80;77.90;;;;;;6189644;23;20153;-74
2022/07/14 01:11:47;;;;;;;2.67;1.90;;;23.80;78.40;;;;;;6188789;23;20164;-77
2022/07/14 01:14:13;;;;;;;4.50;1.92;;;23.80;79.40;;;;;;6188785;23;20205;-76
2022/07/14 01:16:38;;;;;;;3.72;1.90;;;23.70;79.10;;;;;;6189084;23;20160;-78
2022/07/14 01:19:06;;;;;;;2.00;1.55;;;23.70;79.30;;;;;;6188569;23;20219;-77
2022/07/14 01:21:34;;;;;;;2.75;2.10;;;23.60;79.50;;;;;;6216313;23;20282;-78
2022/07/14 01:24:00;;;;;;;3.63;2.08;;;23.60;80.30;;;;;;6188683;23;20291;-77
2022/07/14 01:26:25;;;;;;;2.67;1.90;;;23.60;81.00;;;;;;6188427;23;20232;-77
2022/07/14 01:28:51;;;;;;;3.42;1.77;;;23.50;80.80;;;;;;6189355;23;20264;-78
2022/07/14 01:31:17;;;;;;;2.10;1.90;;;23.40;80.90;;;;;;6188569;23;20240;-78
2022/07/14 01:33:44;;;;;;;2.45;1.90;;;23.50;81.30;;;;;;6189335;23;20163;-78
2022/07/14 01:36:12;;;;;;;3.47;1.98;;;23.50;81.70;;;;;;6188437;23;20240;-78
2022/07/14 01:38:38;;;;;;;3.15;2.00;;;23.40;82.90;;;;;;6188470;23;20218;-78
2022/07/14 01:41:06;;;;;;;3.53;1.98;;;23.40;83.00;;;;;;6187615;23;20192;-77
2022/07/14 01:43:35;;;;;;;2.10;1.90;;;23.30;83.00;;;;;;6188222;23;20197;-77
2022/07/14 01:46:03;;;;;;;2.33;1.60;;;23.30;82.90;;;;;;6188105;23;20174;-76
2022/07/14 01:48:29;;;;;;;4.45;1.90;;;23.30;83.00;;;;;;6188018;23;20232;-78
2022/07/14 01:50:55;;;;;;;4.80;1.98;;;23.20;83.50;;;;;;6188132;23;20176;-74
2022/07/14 01:53:25;;;;;;;3.95;2.05;;;23.20;83.60;;;;;;6188059;23;20153;-76
2022/07/14 01:55:53;;;;;;;2.88;1.92;;;23.20;84.70;;;;;;6188244;23;20192;-76
2022/07/14 01:58:19;;;;;;;4.20;2.25;;;23.10;84.50;;;;;;6216316;23;20242;-78
2022/07/14 02:03:37;;;;;;;2.75;1.83;;;23.00;85.50;;;;;;6216050;23;20137;-78
2022/07/14 02:06:06;;;;;;;3.08;2.03;;;22.90;85.40;;;;;;6189529;23;20195;-77
2022/07/14 02:08:31;;;;;;;3.97;2.20;;;22.80;85.20;;;;;;6190381;23;20150;-75
2022/07/14 02:13:46;;;;;;;5.53;2.08;;;22.80;86.30;;;;;;6214930;23;20196;-77
2022/07/14 02:16:13;;;;;;;4.47;2.15;;;22.70;87.40;;;;;;6190040;23;20156;-77
2022/07/14 02:18:41;;;;;;;3.95;2.47;;;22.70;87.30;;;;;;6189802;23;20184;-78
2022/07/14 02:21:12;;;;;;;2.78;2.10;;;22.60;87.70;;;;;;6189630;23;20150;-78
2022/07/14 02:23:37;;;;;;;3.85;2.55;;;22.60;88.60;;;;;;6189921;23;20173;-77
2022/07/14 02:26:05;;;;;;;5.05;2.60;;;22.50;89.50;;;;;;6190510;23;20550;-79
2022/07/14 02:28:31;;;;;;;4.15;2.50;;;22.50;90.20;;;;;;6190156;23;20256;-78
2022/07/14 02:30:56;;;;;;;2.67;2.03;;;22.40;90.30;;;;;;6190087;23;20253;-78
2022/07/14 02:33:22;;;;;;;4.07;2.60;;;22.40;90.20;;;;;;6189547;23;20157;-77
2022/07/14 02:35:50;;;;;;;3.40;2.50;;;22.30;90.60;;;;;;6189208;23;20193;-78
2022/07/14 02:38:15;;;;;;;4.53;2.40;;;22.30;90.60;;;;;;6189264;23;20176;-76
2022/07/14 02:40:41;;;;;;;4.18;2.50;;;22.30;90.70;;;;;;6189147;23;20154;-78
2022/07/14 02:43:09;;;;;;;4.97;2.50;;;22.20;91.10;;;;;;6189282;23;20177;-78
2022/07/14 02:45:37;;;;;;;6.35;2.78;;;22.20;91.50;;;;;;6189806;23;20183;-77
2022/07/14 02:48:08;;;;;;;5.95;2.92;;;22.10;91.80;;;;;;6189758;23;20164;-78
2022/07/14 02:50:36;;;;;;;4.05;2.47;;;22.10;91.80;;;;;;6189444;23;20161;-77
2022/07/14 02:53:02;;;;;;;4.80;2.60;;;22.00;91.70;;;;;;6189359;23;20158;-74
2022/07/14 02:55:29;;;;;;;5.85;2.45;;;22.00;92.00;;;;;;6189074;23;20193;-77
2022/07/14 02:57:57;;;;;;;5.30;2.55;;;22.00;92.00;;;;;;6189499;23;20166;-78
2022/07/14 03:00:22;;;;;;;4.22;2.70;;;21.90;92.70;;;;;;6189445;23;20150;-78
2022/07/14 03:02:48;;;;;;;4.35;2.53;;;21.80;92.50;;;;;;6189418;23;20158;-77
2022/07/14 03:05:16;;;;;;;5.82;2.70;;;21.80;92.70;;;;;;6189415;23;20189;-75
2022/07/14 03:07:44;;;;;;;5.03;2.90;;;21.80;93.70;;;;;;6214475;23;20146;-74
2022/07/14 03:10:11;;;;;;;4.18;2.80;;;21.70;94.00;;;;;;6189637;23;20149;-76
2022/07/14 03:12:37;;;;;;;6.20;3.05;;;21.70;94.00;;;;;;6188648;23;20208;-75
2022/07/14 03:15:09;;;;;;;4.85;2.63;;;21.60;95.00;;;;;;6189148;23;20196;-75
2022/07/14 03:17:34;;;;;;;7.68;3.50;;;21.60;95.30;;;;;;6189094;23;20153;-78
2022/07/14 03:20:03;;;;;;;8.07;3.30;;;21.60;96.30;;;;;;6188743;23;20167;-78
2022/07/14 03:22:28;;;;;;;9.85;4.15;;;21.50;96.70;;;;;;6188911;23;20180;-76
2022/07/14 03:24:54;;;;;;;8.38;3.67;;;21.50;97.10;;;;;;6189272;23;20184;-75
2022/07/14 03:27:20;;;;;;;6.60;4.22;;;21.40;98.00;;;;;;6188610;23;20177;-76
2022/07/14 03:29:45;;;;;;;8.25;3.35;;;21.40;98.50;;;;;;6188683;23;20157;-77
2022/07/14 03:32:12;;;;;;;6.13;3.35;;;21.30;98.70;;;;;;6189083;23;20214;-78
2022/07/14 03:34:41;;;;;;;5.35;2.75;;;21.30;98.60;;;;;;6188992;23;20193;-76
2022/07/14 03:37:13;;;;;;;5.20;3.03;;;21.30;98.70;;;;;;6188818;23;20158;-77
2022/07/14 03:39:39;;;;;;;6.93;3.35;;;21.30;99.70;;;;;;6189057;23;20149;-78
2022/07/14 03:42:08;;;;;;;4.85;2.95;;;21.30;99.90;;;;;;6201977;23;20199;-78
2022/07/14 03:44:36;;;;;;;5.32;3.00;;;21.20;99.90;;;;;;6214310;23;20150;-78
2022/07/14 03:47:01;;;;;;;4.22;2.60;;;21.20;99.90;;;;;;6214304;23;20162;-79
2022/07/14 03:49:32;;;;;;;6.45;3.00;;;21.20;99.90;;;;;;6214062;23;20211;-77
2022/07/14 03:52:00;;;;;;;8.23;2.95;;;21.20;99.90;;;;;;6214630;23;20145;-75
2022/07/14 03:54:26;;;;;;;5.78;2.70;;;21.20;99.90;;;;;;6214283;23;20188;-76
2022/07/14 03:56:52;;;;;;;4.75;2.72;;;21.20;99.90;;;;;;6214339;23;20257;-78
2022/07/14 03:59:17;;;;;;;6.65;3.08;;;21.20;99.90;;;;;;6214194;23;20153;-75
2022/07/14 04:01:43;;;;;;;7.22;3.35;;;21.20;99.90;;;;;;6213702;23;20184;-79
2022/07/14 04:04:09;;;;;;;6.72;3.00;;;21.20;99.90;;;;;;6213794;23;20165;-78
2022/07/14 04:06:34;;;;;;;5.85;2.75;;;21.20;99.90;;;;;;6213167;23;20181;-77
2022/07/14 04:09:02;;;;;;;6.35;2.67;;;21.10;99.90;;;;;;6214306;23;20157;-78
2022/07/14 04:11:32;;;;;;;6.28;2.83;;;21.10;99.90;;;;;;6213549;23;20153;-76
2022/07/14 04:13:58;;;;;;;5.22;2.50;;;21.10;99.90;;;;;;6213420;23;20185;-78
2022/07/14 04:16:27;;;;;;;6.43;2.50;;;21.10;99.90;;;;;;6214251;23;20157;-77
2022/07/14 04:18:52;;;;;;;11.05;6.53;;;21.10;99.90;;;;;;6214171;23;20142;-79
2022/07/14 04:21:20;;;;;;;8.35;4.25;;;21.10;99.90;;;;;;6213578;23;20154;-76
2022/07/14 04:23:48;;;;;;;7.50;3.65;;;21.10;99.90;;;;;;6213728;23;20545;-78
2022/07/14 04:26:14;;;;;;;6.80;3.05;;;21.10;99.90;;;;;;6213107;23;20164;-77
2022/07/14 04:28:40;;;;;;;8.50;3.50;;;21.10;99.90;;;;;;6213604;23;20141;-78
2022/07/14 04:31:08;;;;;;;5.88;2.88;;;21.10;99.90;;;;;;6213524;23;20176;-78
2022/07/14 04:33:37;;;;;;;7.18;2.92;;;21.10;99.90;;;;;;6213520;23;20240;-74
2022/07/14 04:36:05;;;;;;;5.50;2.65;;;21.00;99.90;;;;;;6213323;23;20181;-77
2022/07/14 04:38:35;;;;;;;8.80;2.70;;;21.00;99.90;;;;;;6212337;23;20145;-77
2022/07/14 04:41:03;;;;;;;6.05;2.92;;;21.10;99.90;;;;;;6213349;23;20527;-77
2022/07/14 04:43:29;;;;;;;5.13;2.47;;;21.00;99.90;;;;;;6188748;23;20232;-77
2022/07/14 04:45:54;;;;;;;7.03;2.85;;;21.00;99.90;;;;;;6188081;23;20224;-76
2022/07/14 04:48:20;;;;;;;9.57;2.83;;;21.10;99.90;;;;;;6188853;23;20162;-79
2022/07/14 04:53:38;;;;;;;7.43;2.58;;;21.10;99.90;;;;;;6214166;23;20196;-75
2022/07/14 04:56:09;;;;;;;7.18;2.75;;;21.10;99.90;;;;;;6188705;23;20158;-78
2022/07/14 04:58:35;;;;;;;8.23;2.80;;;21.10;99.90;;;;;;6187822;23;20260;-77
2022/07/14 05:01:02;;;;;;;6.63;2.60;;;21.10;99.90;;;;;;6188497;23;20180;-77
2022/07/14 05:03:28;;;;;;;6.93;2.78;;;21.10;99.90;;;;;;6188148;23;20153;-78
2022/07/14 05:05:56;;;;;;;5.82;2.63;;;21.10;99.90;;;;;;6188947;23;20183;-77
2022/07/14 05:08:21;;;;;;;6.57;2.60;;;21.10;99.90;;;;;;6188191;23;20161;-76
2022/07/14 05:10:47;;;;;;;5.43;2.58;;;21.10;99.90;;;;;;6189045;23;20161;-78
2022/07/14 05:13:15;;;;;;;5.82;2.88;;;21.00;99.90;;;;;;6189698;23;20164;-77
2022/07/14 05:15:41;;;;;;;4.97;2.55;;;21.00;99.90;;;;;;6188616;23;20173;-77
2022/07/14 05:18:07;;;;;;;5.15;2.90;;;21.00;99.90;;;;;;6189445;23;20180;-76
2022/07/14 05:20:32;;;;;;;7.35;2.85;;;21.00;99.90;;;;;;6188644;23;20237;-75
2022/07/14 05:22:58;;;;;;;6.95;2.92;;;21.00;99.90;;;;;;6187759;23;20154;-77
2022/07/14 05:25:24;;;;;;;6.63;2.80;;;21.00;99.90;;;;;;6188183;23;20153;-77
2022/07/14 05:27:49;;;;;;;6.95;2.85;;;21.00;99.90;;;;;;6215097;23;20134;-76
2022/07/14 05:30:18;;;;;;;8.65;2.92;;;21.00;99.90;;;;;;6188478;23;20161;-74
2022/07/14 05:32:43;;;;;;;5.18;2.60;;;21.00;99.90;;;;;;6190170;23;20181;-78
2022/07/14 05:35:09;;;;;;;7.18;2.13;;;20.90;99.90;;;;;;6190871;23;20224;-76
2022/07/14 05:37:37;;;;;;;8.35;2.95;;;21.00;99.90;;;;;;6190567;23;20153;-77
2022/07/14 05:40:03;;;;;;;7.38;2.70;;;20.90;99.90;;;;;;6190634;23;20174;-77
2022/07/14 05:42:29;;;;;;;6.78;3.00;;;21.00;99.90;;;;;;6207387;23;20166;-73
2022/07/14 05:44:55;;;;;;;6.70;2.72;;;21.00;99.90;;;;;;6215284;23;20168;-76
2022/07/14 05:47:22;;;;;;;6.13;2.70;;;21.00;99.90;;;;;;6215574;23;20168;-77
2022/07/14 05:49:48;;;;;;;5.80;2.58;;;21.00;99.90;;;;;;6215305;23;20211;-76
2022/07/14 05:52:14;;;;;;;4.97;2.47;;;21.00;99.90;;;;;;6214828;23;20185;-76
2022/07/14 05:54:41;;;;;;;6.18;2.47;;;21.00;99.90;;;;;;6214778;23;20181;-77
2022/07/14 05:57:09;;;;;;;6.20;2.35;;;21.10;99.90;;;;;;6214994;23;20150;-77
2022/07/14 05:59:35;;;;;;;6.80;2.63;;;21.10;99.90;;;;;;6214719;23;20215;-75
2022/07/14 06:02:02;;;;;;;6.82;2.97;;;21.20;99.90;;;;;;6215294;23;20160;-78
2022/07/14 06:04:28;;;;;;;5.32;2.70;;;21.20;99.90;;;;;;6214742;23;20232;-75
2022/07/14 06:06:53;;;;;;;7.55;2.58;;;21.20;99.90;;;;;;6214329;23;20189;-77
2022/07/14 06:09:21;;;;;;;6.03;2.80;;;21.20;99.90;;;;;;6214785;23;20150;-72
2022/07/14 06:11:47;;;;;;;7.68;2.88;;;21.20;99.90;;;;;;6214630;23;20264;-76
2022/07/14 06:14:17;;;;;;;6.93;2.67;;;21.20;99.90;;;;;;6214605;23;20193;-77
2022/07/14 06:16:43;;;;;;;7.32;3.33;;;21.20;99.90;;;;;;6215091;23;20184;-77
2022/07/14 06:19:09;;;;;;;4.53;2.70;;;21.20;99.90;;;;;;6215157;23;20244;-76
2022/07/14 06:21:34;;;;;;;6.72;3.05;;;21.20;99.90;;;;;;6214096;23;20153;-74
2022/07/14 06:24:02;;;;;;;7.30;3.25;;;21.20;99.90;;;;;;6214881;23;20205;-78
2022/07/14 06:26:34;;;;;;;6.50;2.90;;;21.30;99.90;;;;;;6214689;23;20181;-77
2022/07/14 06:29:02;;;;;;;4.88;2.35;;;21.30;99.90;;;;;;6215727;23;20160;-79
2022/07/14 06:31:34;;;;;;;5.90;2.70;;;21.30;99.90;;;;;;6214511;23;20524;-78
2022/07/14 06:34:00;;;;;;;6.72;2.45;;;21.40;99.90;;;;;;6215042;23;20212;-78
2022/07/14 06:36:30;;;;;;;6.43;2.92;;;21.50;99.90;;;;;;6213834;23;20236;-78
2022/07/14 06:38:58;;;;;;;6.00;2.78;;;21.50;99.90;;;;;;6214774;23;20169;-74
2022/07/14 06:41:26;;;;;;;10.10;3.00;;;21.60;99.90;;;;;;6214216;23;20639;-74
2022/07/14 06:43:54;;;;;;;8.50;2.80;;;21.70;99.90;;;;;;6214806;23;20254;-79
2022/07/14 06:46:19;;;;;;;5.18;2.63;;;21.70;99.90;;;;;;6215015;23;20160;-78
2022/07/14 06:48:45;;;;;;;5.50;2.75;;;21.80;99.90;;;;;;6214781;23;20176;-79
2022/07/14 06:51:11;;;;;;;4.93;2.63;;;21.80;99.90;;;;;;6214579;23;20177;-77
2022/07/14 06:53:37;;;;;;;7.55;2.70;;;21.80;99.90;;;;;;6214679;23;20157;-79
2022/07/14 06:56:05;;;;;;;8.05;2.83;;;21.90;99.90;;;;;;6214647;23;20272;-79
2022/07/14 06:58:33;;;;;;;8.02;3.03;;;21.90;99.90;;;;;;6215314;23;20216;-79
2022/07/14 07:01:01;;;;;;;6.82;3.05;;;21.90;99.90;;;;;;6214723;23;20150;-79
2022/07/14 07:03:27;;;;;;;7.18;3.42;;;22.00;99.90;;;;;;6214555;23;20173;-76
2022/07/14 07:08:37;;;;;;;5.95;2.63;;;22.10;99.90;;;;;;6215529;23;20168;-78
2022/07/14 07:11:05;;;;;;;6.43;3.20;;;22.10;99.90;;;;;;6214720;23;20161;-73
2022/07/14 07:13:30;;;;;;;4.82;2.92;;;22.10;99.90;;;;;;6214456;23;20167;-77
2022/07/14 07:15:56;;;;;;;6.40;2.80;;;22.10;99.90;;;;;;6213587;23;20189;-74
2022/07/14 07:18:22;;;;;;;7.03;3.20;;;22.10;99.90;;;;;;6215110;23;20223;-74
2022/07/14 07:20:47;;;;;;;6.45;2.67;;;22.10;99.90;;;;;;6214296;23;20164;-76
2022/07/14 07:23:13;;;;;;;6.90;3.00;;;22.10;99.90;;;;;;6214413;23;20150;-75
2022/07/14 07:25:41;;;;;;;7.57;2.88;;;22.00;99.90;;;;;;6214458;23;20484;-77
2022/07/14 07:28:07;;;;;;;8.35;3.53;;;22.10;99.90;;;;;;6213145;23;20177;-76
2022/07/14 07:30:32;;;;;;;7.93;3.13;;;22.10;99.90;;;;;;6214436;23;20157;-76
2022/07/14 07:33:00;;;;;;;10.98;3.22;;;22.20;99.90;;;;;;6214686;23;20204;-75
2022/07/14 07:35:26;;;;;;;5.00;3.00;;;22.30;99.90;;;;;;6213452;23;20192;-74
2022/07/14 07:37:51;;;;;;;6.13;2.47;;;22.30;99.90;;;;;;6213951;23;20153;-72
2022/07/14 07:40:17;;;;;;;8.02;3.03;;;22.40;99.90;;;;;;6213771;23;20228;-77
2022/07/14 07:42:43;;;;;;;8.60;3.30;;;22.40;99.90;;;;;;6212778;23;20255;-74
2022/07/14 07:45:10;;;;;;;8.82;3.20;;;22.40;99.90;;;;;;6213489;23;20396;-78
2022/07/14 07:47:36;;;;;;;8.45;3.20;;;22.50;99.90;;;;;;6213551;23;20157;-78
2022/07/14 07:50:02;;;;;;;6.03;2.55;;;22.50;99.90;;;;;;6214238;23;20287;-77
2022/07/14 07:52:28;;;;;;;6.47;3.03;;;22.60;99.90;;;;;;6214571;23;20153;-72
2022/07/14 07:54:54;;;;;;;8.80;3.22;;;22.60;99.90;;;;;;6213622;23;20241;-77
2022/07/14 07:57:20;;;;;;;7.60;3.40;;;22.60;99.90;;;;;;6213883;23;20153;-76
2022/07/14 07:59:49;;;;;;;6.65;3.00;;;22.60;99.90;;;;;;6213930;23;20224;-77
2022/07/14 08:02:17;;;;;;;6.95;3.35;;;22.60;99.90;;;;;;6213996;23;20174;-76
2022/07/14 08:04:46;;;;;;;6.60;3.20;;;22.60;99.90;;;;;;6214424;23;20188;-77
2022/07/14 08:07:14;;;;;;;5.25;2.80;;;22.60;99.90;;;;;;6213754;23;20164;-75
2022/07/14 08:09:39;;;;;;;6.85;3.30;;;22.60;99.90;;;;;;6213448;23;20151;-76
2022/07/14 08:12:05;;;;;;;8.95;3.03;;;22.60;99.90;;;;;;6214199;23;20193;-77
2022/07/14 08:14:49;;;;;;;12.90;3.28;;;22.60;99.90;;;;;;6213533;23;20221;-77
2022/07/14 08:17:22;;;;;;;6.45;2.75;;;22.50;99.90;;;;;;6213734;23;20141;-75
2022/07/14 08:19:48;;;;;;;6.78;2.75;;;22.50;99.90;;;;;;6215134;23;20179;-77
2022/07/14 08:22:18;;;;;;;8.50;3.13;;;22.40;99.90;;;;;;6214204;23;20240;-75
2022/07/14 08:24:44;;;;;;;4.63;2.63;;;22.40;99.90;;;;;;6213159;23;20149;-75
2022/07/14 08:27:09;;;;;;;11.45;3.60;;;22.40;99.90;;;;;;6214085;23;20208;-76
2022/07/14 08:29:44;;;;;;;8.85;3.50;;;22.40;99.90;;;;;;6213828;23;20248;-74
2022/07/14 08:32:10;;;;;;;6.78;3.38;;;22.40;99.90;;;;;;6214518;23;20198;-76
2022/07/14 08:34:38;;;;;;;9.10;3.13;;;22.50;99.90;;;;;;6213540;23;20223;-77
2022/07/14 08:37:05;;;;;;;7.95;3.38;;;22.50;99.90;;;;;;6213840;23;20159;-73
2022/07/14 08:39:31;;;;;;;7.30;3.17;;;22.60;99.90;;;;;;6213037;23;20234;-75
2022/07/14 08:42:04;;;;;;;6.35;3.40;;;22.60;99.90;;;;;;6214070;23;20276;-76
2022/07/14 08:44:32;;;;;;;9.75;3.10;;;22.70;99.90;;;;;;6213942;23;20162;-75
2022/07/14 08:47:01;;;;;;;6.78;2.55;;;22.70;99.90;;;;;;6212277;23;20187;-74
2022/07/14 08:49:30;;;;;;;4.93;2.55;;;22.70;99.90;;;;;;6212763;23;20239;-76
2022/07/14 08:51:55;;;;;;;7.10;2.83;;;22.80;99.90;;;;;;6213092;23;20181;-77
2022/07/14 08:54:25;;;;;;;5.38;2.60;;;22.90;99.90;;;;;;6212905;23;20195;-73
2022/07/14 08:56:51;;;;;;;11.05;3.40;;;23.00;99.90;;;;;;6213000;23;20180;-72
2022/07/14 08:59:17;;;;;;;8.68;3.05;;;23.00;99.90;;;;;;6213420;23;20180;-75
2022/07/14 09:01:49;;;;;;;6.30;2.95;;;23.10;99.90;;;;;;6213655;23;20158;-77
2022/07/14 09:04:15;;;;;;;5.85;2.63;;;23.20;99.90;;;;;;6213554;23;20219;-75
2022/07/14 09:06:50;;;;;;;8.05;3.15;;;23.30;99.90;;;;;;6214043;23;20200;-76
2022/07/14 09:09:18;;;;;;;6.70;2.80;;;23.40;99.90;;;;;;6216179;23;20156;-76
2022/07/14 09:12:04;;;;;;;6.18;2.60;;;23.60;99.90;;;;;;6215964;23;20215;-74
2022/07/14 09:17:25;;;;;;;5.22;2.33;;;23.90;99.90;;;;;;6154631;23;20236;-74
2022/07/14 09:20:11;;;;;;;3.30;1.75;;;24.00;99.90;;;;;;6215286;23;20211;-75
2022/07/14 09:22:44;;;;;;;5.40;2.15;;;24.20;99.90;;;;;;6215109;23;20153;-76
2022/07/14 09:25:16;;;;;;;3.92;1.75;;;24.30;99.90;;;;;;6214809;23;20181;-73
2022/07/14 09:27:46;;;;;;;4.60;1.77;;;24.40;99.90;;;;;;6215370;23;20279;-76
2022/07/14 09:30:13;;;;;;;4.82;1.63;;;24.50;99.90;;;;;;6215166;23;20157;-74
2022/07/14 09:32:59;;;;;;;4.95;1.67;;;24.50;99.90;;;;;;6215041;23;20184;-75
2022/07/14 09:35:34;;;;;;;3.88;1.70;;;24.50;99.90;;;;;;6214693;23;20177;-73
2022/07/14 09:38:01;;;;;;;5.07;1.80;;;24.50;99.90;;;;;;6215840;23;20153;-75
2022/07/14 09:40:30;;;;;;;4.65;1.70;;;24.60;99.90;;;;;;6215391;23;20624;-75
2022/07/14 09:43:01;;;;;;;4.80;2.10;;;24.70;99.90;;;;;;6215069;23;20173;-75
2022/07/14 09:45:34;;;;;;;7.82;2.03;;;24.70;99.90;;;;;;6216117;23;20178;-79
2022/07/14 09:48:09;;;;;;;3.47;1.60;;;24.80;99.90;;;;;;6215906;23;20334;-79
2022/07/14 09:50:38;;;;;;;6.05;1.73;;;24.90;99.90;;;;;;6216385;23;20248;-76
2022/07/14 09:53:16;;;;;;;5.50;1.95;;;25.00;99.90;;;;;;6215195;23;20181;-76
2022/07/14 09:56:06;;;;;;;4.97;2.08;;;25.10;99.90;;;;;;6215009;23;20195;-75
2022/07/14 09:58:33;;;;;;;3.97;1.80;;;25.20;99.90;;;;;;6214929;23;20189;-75
2022/07/14 10:01:04;;;;;;;5.00;1.75;;;25.30;99.90;;;;;;6214952;23;20176;-77
2022/07/14 10:03:34;;;;;;;7.32;2.05;;;25.40;99.90;;;;;;6215613;23;20160;-76
2022/07/14 10:06:04;;;;;;;5.18;1.80;;;25.40;99.90;;;;;;6215086;23;20232;-76
2022/07/14 10:08:35;;;;;;;4.35;1.70;;;25.40;99.90;;;;;;6215624;23;20153;-73
2022/07/14 10:11:05;;;;;;;4.65;1.77;;;25.40;99.90;;;;;;6215157;23;20177;-77
2022/07/14 10:13:33;;;;;;;7.13;2.15;;;25.50;99.90;;;;;;6215376;23;20168;-76
2022/07/14 10:15:59;;;;;;;4.55;1.73;;;25.50;99.90;;;;;;6216842;23;20170;-76
2022/07/14 10:18:27;;;;;;;4.13;1.73;;;25.60;99.90;;;;;;6215074;23;20235;-76
2022/07/14 10:21:00;;;;;;;4.68;1.70;;;25.70;99.90;;;;;;6215331;23;20164;-76
2022/07/14 10:23:29;;;;;;;5.00;1.60;;;25.70;99.30;;;;;;6215542;23;20152;-76
2022/07/14 10:25:58;;;;;;;3.85;1.60;;;25.80;99.70;;;;;;6215300;23;20161;-76
2022/07/14 10:28:25;;;;;;;3.70;1.48;;;25.80;98.50;;;;;;6216594;23;20227;-75
2022/07/14 10:31:16;;;;;;;3.92;1.50;;;25.90;98.50;;;;;;6215783;23;20247;-76
2022/07/14 10:33:56;;;;;;;3.17;1.35;;;25.90;97.20;;;;;;6216269;23;20211;-76
2022/07/14 10:36:50;;;;;;;3.63;1.40;;;25.90;97.20;;;;;;6215279;23;20180;-77
2022/07/14 10:39:43;;;;;;;4.18;1.20;;;25.90;96.70;;;;;;6215806;23;20232;-73
2022/07/14 10:42:08;;;;;;;5.40;1.77;;;26.00;96.60;;;;;;6215649;23;20173;-76
2022/07/14 10:44:36;;;;;;;3.92;1.70;;;26.00;96.20;;;;;;6215977;23;20193;-76
2022/07/14 10:47:11;;;;;;;4.07;1.60;;;26.10;96.10;;;;;;6215123;23;20167;-76
2022/07/14 10:50:07;;;;;;;3.70;1.65;;;26.30;96.00;;;;;;6215038;23;20473;-73
2022/07/14 10:52:35;;;;;;;3.08;1.40;;;26.50;95.90;;;;;;6215491;23;20141;-75
2022/07/14 10:55:17;;;;;;;3.08;1.40;;;26.70;96.00;;;;;;6215315;23;20274;-73
2022/07/14 10:58:04;;;;;;;5.55;1.95;;;26.90;94.40;;;;;;6215309;23;20284;-75
2022/07/14 11:00:46;;;;;;;3.22;1.33;;;27.00;91.10;;;;;;6215044;23;20149;-74
2022/07/14 11:03:35;;;;;;;2.17;1.20;;;27.10;91.30;;;;;;6214277;23;20181;-74
2022/07/14 11:06:05;;;;;;;5.07;1.40;;;27.10;87.80;;;;;;6202372;23;20145;-71
2022/07/14 11:08:36;;;;;;;4.50;1.70;;;27.30;90.90;;;;;;6214638;23;20194;-75
2022/07/14 11:11:08;;;;;;;4.10;1.40;;;27.40;86.80;;;;;;6214386;23;20176;-74
2022/07/14 11:13:56;;;;;;;5.90;1.50;;;27.50;88.00;;;;;;6214320;23;20158;-74
2022/07/14 11:16:46;;;;;;;3.05;1.35;;;27.60;87.10;;;;;;6170056;23;20161;-74
2022/07/14 11:19:40;;;;;;;2.45;1.10;;;27.70;84.90;;;;;;6214701;23;20168;-72
2022/07/14 11:22:21;;;;;;;3.63;1.27;;;27.80;85.70;;;;;;6214188;23;20161;-70
2022/07/14 11:24:53;;;;;;;3.35;1.30;;;28.00;86.60;;;;;;6214586;23;20149;-71
2022/07/14 11:27:28;;;;;;;5.43;1.40;;;28.20;85.50;;;;;;6214766;23;20232;-76
2022/07/14 11:30:19;;;;;;;3.72;1.52;;;28.30;83.60;;;;;;6213921;23;20198;-81
2022/07/14 11:33:14;;;;;;;3.05;1.42;;;28.40;80.40;;;;;;6189350;23;20146;-75
2022/07/14 11:38:43;;;;;;;4.32;1.50;;;28.50;82.30;;;;;;6215224;23;20153;-81
2022/07/14 11:41:12;;;;;;;3.92;1.30;;;28.40;78.50;;;;;;6214204;23;20240;-81
2022/07/14 11:43:40;;;;;;;5.65;1.50;;;28.40;80.10;;;;;;6214236;23;20167;-76
2022/07/14 11:46:08;;;;;;;5.07;1.42;;;28.50;79.20;;;;;;6213692;23;20231;-77
2022/07/14 11:48:39;;;;;;;4.85;1.33;;;28.40;78.10;;;;;;6213353;23;20181;-76
2022/07/14 11:51:09;;;;;;;4.35;1.40;;;28.50;76.50;;;;;;6214100;23;20181;-82
2022/07/14 11:53:37;;;;;;;3.42;1.35;;;28.50;75.90;;;;;;6214385;23;20181;-82
2022/07/14 11:56:04;;;;;;;3.35;1.30;;;28.60;76.50;;;;;;6213116;23;20287;-83
2022/07/14 11:58:33;;;;;;;2.10;1.23;;;28.60;75.70;;;;;;6213512;23;20206;-81
2022/07/14 12:01:00;;;;;;;2.08;1.20;;;28.70;75.00;;;;;;6213850;23;20168;-77
2022/07/14 12:03:27;;;;;;;2.25;1.30;;;28.80;75.10;;;;;;6213331;23;20149;-75
2022/07/14 12:06:00;;;;;;;2.75;1.10;;;28.90;74.00;;;;;;6213514;23;20153;-78
2022/07/14 12:08:31;;;;;;;3.13;1.20;;;29.00;72.30;;;;;;6212433;23;20181;-75
2022/07/14 12:11:08;;;;;;;4.28;1.23;;;29.10;72.90;;;;;;6213792;23;20158;-71
2022/07/14 12:13:44;;;;;;;5.55;1.27;;;29.30;72.40;;;;;;6214325;23;20184;-74
2022/07/14 12:16:12;;;;;;;4.25;1.38;;;29.40;68.30;;;;;;6214119;23;20181;-70
2022/07/14 12:18:38;;;;;;;4.55;1.30;;;29.50;71.10;;;;;;6214601;23;20150;-71
2022/07/14 12:21:04;;;;;;;2.42;1.33;;;29.60;71.10;;;;;;6213977;23;20184;-70
2022/07/14 12:23:29;;;;;;;3.10;1.33;;;29.70;70.30;;;;;;6214156;23;20156;-75
2022/07/14 12:26:02;;;;;;;2.55;1.10;;;29.70;69.60;;;;;;6213494;23;20161;-74
2022/07/14 12:28:28;;;;;;;2.75;1.15;;;29.80;68.40;;;;;;6213301;23;20149;-75
2022/07/14 12:31:02;;;;;;;8.07;1.63;;;29.90;69.20;;;;;;6213108;23;20163;-74
2022/07/14 12:33:36;;;;;;;3.40;1.60;;;29.90;65.20;;;;;;6213230;23;20185;-76
2022/07/14 12:36:04;;;;;;;2.85;1.35;;;30.00;66.70;;;;;;6213162;23;20192;-77
2022/07/14 12:38:37;;;;;;;3.08;1.30;;;30.00;66.70;;;;;;6213409;23;20184;-71
2022/07/14 12:41:06;;;;;;;5.43;1.67;;;30.00;65.20;;;;;;6212393;23;20168;-75
2022/07/14 12:43:40;;;;;;;5.65;1.90;;;30.00;63.40;;;;;;6188121;23;20154;-73
2022/07/14 12:46:11;;;;;;;3.38;1.67;;;29.90;62.50;;;;;;6188317;23;20177;-75
2022/07/14 12:49:01;;;;;;;3.25;1.40;;;30.00;63.60;;;;;;6188800;23;20157;-70
2022/07/14 12:51:37;;;;;;;3.30;1.52;;;30.00;60.70;;;;;;6175950;23;20242;-70
2022/07/14 12:54:05;;;;;;;4.35;1.58;;;30.10;61.10;;;;;;6188743;23;20152;-81
2022/07/14 12:56:52;;;;;;;4.00;1.60;;;30.00;63.40;;;;;;6189454;23;20153;-74
2022/07/14 12:59:20;;;;;;;2.70;1.27;;;30.00;63.10;;;;;;6188964;23;20173;-74
2022/07/14 13:01:52;;;;;;;3.72;1.58;;;30.00;62.10;;;;;;6189260;23;20570;-73
2022/07/14 13:04:37;;;;;;;3.35;1.55;;;30.00;61.70;;;;;;6187860;23;20185;-71
2022/07/14 13:07:27;;;;;;;3.25;1.80;;;30.10;60.80;;;;;;6188323;23;20168;-72
2022/07/14 13:10:15;;;;;;;2.25;1.50;;;30.20;59.20;;;;;;6188741;23;20223;-73
2022/07/14 13:12:50;;;;;;;2.63;1.58;;;30.30;59.20;;;;;;6188072;23;20430;-73